createdAt,value
2018-05-09T00:01:40.280Z,14.24
2018-05-09T00:04:06.165Z,14.11
2018-05-09T00:06:32.042Z,14.24
2018-05-09T00:08:57.882Z,14.20
2018-05-09T00:11:23.721Z,14.10
2018-05-09T00:13:49.569Z,14.21
2018-05-09T00:16:15.440Z,14.20
2018-05-09T00:18:41.267Z,14.18
2018-05-09T00:21:07.112Z,14.22
2018-05-09T00:23:32.946Z,13.92
2018-05-09T00:25:58.796Z,14.05
2018-05-09T00:28:24.636Z,13.60
2018-05-09T00:30:50.524Z,13.64
2018-05-09T00:33:16.364Z,13.59
2018-05-09T00:35:42.229Z,13.05
2018-05-09T00:38:08.100Z,13.18
2018-05-09T00:40:33.985Z,12.90
2018-05-09T00:42:59.836Z,13.30
2018-05-09T00:45:25.704Z,13.51
2018-05-09T00:47:51.586Z,13.72
2018-05-09T00:50:17.426Z,13.47
2018-05-09T00:52:43.261Z,13.72
2018-05-09T00:55:09.150Z,13.50
2018-05-09T00:57:35.039Z,13.60
2018-05-09T01:00:00.920Z,13.59
2018-05-09T01:02:26.782Z,13.28
2018-05-09T01:04:52.637Z,13.35
2018-05-09T01:07:18.494Z,12.97
2018-05-09T01:09:44.361Z,12.92
2018-05-09T01:12:10.201Z,12.93
2018-05-09T01:14:36.024Z,13.15
2018-05-09T01:17:01.897Z,13.10
2018-05-09T01:19:27.772Z,13.24
2018-05-09T01:21:53.609Z,13.14
2018-05-09T01:24:19.474Z,13.17
2018-05-09T01:26:45.368Z,13.31
2018-05-09T01:29:11.268Z,13.22
2018-05-09T01:31:37.126Z,13.37
2018-05-09T01:34:02.980Z,13.38
2018-05-09T01:36:28.863Z,12.93
2018-05-09T01:38:54.705Z,12.31
2018-05-09T01:41:20.632Z,12.65
2018-05-09T01:43:46.504Z,12.43
2018-05-09T01:46:12.401Z,12.14
2018-05-09T01:48:38.237Z,12.32
2018-05-09T01:51:04.082Z,12.54
2018-05-09T01:53:29.948Z,12.56
2018-05-09T01:55:55.818Z,12.52
2018-05-09T01:58:21.652Z,12.57
2018-05-09T02:00:47.525Z,12.58
2018-05-09T02:03:13.374Z,12.65
2018-05-09T02:05:39.224Z,12.23
2018-05-09T02:08:05.073Z,12.42
2018-05-09T02:10:30.909Z,12.72
2018-05-09T02:12:56.748Z,12.75
2018-05-09T02:15:22.628Z,12.46
2018-05-09T02:17:48.488Z,12.48
2018-05-09T02:20:14.321Z,12.62
2018-05-09T02:22:40.155Z,12.36
2018-05-09T02:25:06.002Z,12.30
2018-05-09T02:27:31.848Z,12.48
2018-05-09T02:29:57.677Z,12.67
2018-05-09T02:32:23.509Z,12.83
2018-05-09T02:34:49.337Z,12.84
2018-05-09T02:37:15.194Z,12.54
2018-05-09T02:39:41.093Z,12.76
2018-05-09T02:42:06.986Z,13.00
2018-05-09T02:44:32.837Z,12.96
2018-05-09T02:46:58.730Z,13.10
2018-05-09T02:49:24.594Z,12.94
2018-05-09T02:51:50.454Z,13.25
2018-05-09T02:54:16.378Z,13.10
2018-05-09T02:56:42.190Z,13.03
2018-05-09T02:59:08.043Z,13.02
2018-05-09T03:01:33.929Z,12.91
2018-05-09T03:04:00.004Z,12.75
2018-05-09T03:06:25.830Z,12.66
2018-05-09T03:08:51.699Z,12.28
2018-05-09T03:11:17.537Z,12.35
2018-05-09T03:13:43.384Z,12.50
2018-05-09T03:16:09.267Z,12.38
2018-05-09T03:18:35.130Z,12.30
2018-05-09T03:21:01.005Z,12.28
2018-05-09T03:23:26.832Z,12.21
2018-05-09T03:25:52.682Z,12.40
2018-05-09T03:28:18.538Z,12.47
2018-05-09T03:30:44.369Z,12.12
2018-05-09T03:33:10.221Z,11.85
2018-05-09T03:35:36.092Z,12.16
2018-05-09T03:38:01.945Z,12.37
2018-05-09T03:40:27.916Z,12.53
2018-05-09T03:42:53.765Z,12.65
2018-05-09T03:45:19.623Z,12.38
2018-05-09T03:47:45.490Z,12.19
2018-05-09T03:50:11.338Z,12.42
2018-05-09T03:52:37.173Z,12.30
2018-05-09T03:55:03.383Z,12.09
2018-05-09T03:57:29.253Z,12.05
2018-05-09T03:59:55.117Z,12.00
2018-05-09T04:02:37.128Z,11.99
2018-05-09T04:08:18.970Z,12.10
2018-05-09T04:10:44.827Z,11.93
2018-05-09T04:13:10.742Z,11.96
2018-05-09T04:15:36.510Z,12.07
2018-05-09T04:18:02.398Z,12.01
2018-05-09T04:20:28.256Z,12.00
2018-05-09T04:22:54.119Z,12.04
2018-05-09T04:25:19.988Z,12.17
2018-05-09T04:27:45.826Z,12.25
2018-05-09T04:30:11.693Z,12.57
2018-05-09T04:32:37.570Z,12.79
2018-05-09T04:35:03.547Z,13.12
2018-05-09T04:37:29.404Z,13.34
2018-05-09T04:39:55.296Z,13.58
2018-05-09T04:42:21.175Z,13.78
2018-05-09T04:44:47.036Z,13.91
2018-05-09T04:47:12.889Z,14.23
2018-05-09T04:49:38.748Z,14.26
2018-05-09T04:52:04.613Z,14.35
2018-05-09T04:54:30.561Z,14.18
2018-05-09T04:56:56.373Z,14.35
2018-05-09T04:59:22.225Z,14.44
2018-05-09T05:01:48.104Z,14.52
2018-05-09T05:04:13.961Z,14.71
2018-05-09T05:06:39.811Z,14.88
2018-05-09T05:09:05.650Z,15.00
2018-05-09T05:11:31.496Z,14.87
2018-05-09T05:13:57.348Z,14.86
2018-05-09T05:16:23.178Z,14.99
2018-05-09T05:18:49.014Z,15.07
2018-05-09T05:21:14.856Z,15.24
2018-05-09T05:23:40.698Z,15.42
2018-05-09T05:26:13.508Z,15.58
2018-05-09T05:28:39.377Z,15.81
2018-05-09T05:31:05.224Z,16.02
2018-05-09T05:33:31.072Z,16.24
2018-05-09T05:35:56.897Z,16.53
2018-05-09T05:38:22.809Z,16.88
2018-05-09T05:40:48.683Z,17.19
2018-05-09T05:43:14.520Z,17.26
2018-05-09T05:45:40.369Z,17.36
2018-05-09T05:48:06.182Z,17.50
2018-05-09T05:50:32.135Z,17.80
2018-05-09T05:52:57.920Z,17.98
2018-05-09T05:55:23.745Z,18.15
2018-05-09T05:57:49.596Z,18.10
2018-05-09T06:00:15.468Z,18.46
2018-05-09T06:02:41.352Z,18.16
2018-05-09T06:05:07.218Z,18.36
2018-05-09T06:07:33.076Z,18.79
2018-05-09T06:09:58.936Z,19.03
2018-05-09T06:12:24.828Z,19.44
2018-05-09T06:14:50.685Z,19.37
2018-05-09T06:17:16.580Z,19.03
2018-05-09T06:19:42.358Z,19.09
2018-05-09T06:22:08.210Z,19.32
2018-05-09T06:24:34.081Z,19.01
2018-05-09T06:26:59.936Z,19.13
2018-05-09T06:29:25.810Z,19.40
2018-05-09T06:31:51.661Z,19.38
2018-05-09T06:34:17.515Z,19.46
2018-05-09T06:36:43.350Z,19.55
2018-05-09T06:39:09.239Z,19.62
2018-05-09T06:41:35.126Z,19.96
2018-05-09T06:44:00.941Z,20.30
2018-05-09T06:46:26.809Z,20.05
2018-05-09T06:48:52.668Z,20.47
2018-05-09T06:51:18.511Z,20.76
2018-05-09T06:53:44.364Z,20.58
2018-05-09T06:56:10.242Z,20.75
2018-05-09T06:58:36.085Z,20.99
2018-05-09T07:01:02.001Z,20.97
2018-05-09T07:03:27.893Z,20.78
2018-05-09T07:05:53.769Z,20.80
2018-05-09T07:08:19.625Z,20.95
2018-05-09T07:10:45.473Z,21.08
2018-05-09T07:13:11.332Z,21.07
2018-05-09T07:15:37.153Z,21.02
2018-05-09T07:18:03.036Z,20.70
2018-05-09T07:20:28.877Z,20.80
2018-05-09T07:22:54.721Z,21.30
2018-05-09T07:25:20.589Z,21.47
2018-05-09T07:27:46.451Z,21.73
2018-05-09T07:30:12.317Z,21.65
2018-05-09T07:32:38.200Z,21.62
2018-05-09T07:35:04.101Z,21.27
2018-05-09T07:37:29.945Z,21.23
2018-05-09T07:39:55.838Z,22.00
2018-05-09T07:42:21.684Z,22.34
2018-05-09T07:44:47.540Z,22.33
2018-05-09T07:47:13.389Z,22.47
2018-05-09T07:49:39.246Z,22.49
2018-05-09T07:52:05.086Z,22.40
2018-05-09T07:54:30.981Z,22.44
2018-05-09T07:56:56.838Z,22.20
2018-05-09T07:59:22.681Z,22.48
2018-05-09T08:01:48.504Z,22.54
2018-05-09T08:04:14.358Z,22.23
2018-05-09T08:06:40.238Z,22.61
2018-05-09T08:09:06.113Z,22.66
2018-05-09T08:11:31.976Z,22.03
2018-05-09T08:13:57.830Z,22.56
2018-05-09T08:16:23.694Z,22.10
2018-05-09T08:18:49.577Z,22.06
2018-05-09T08:21:15.468Z,22.20
2018-05-09T08:23:41.322Z,22.18
2018-05-09T08:26:07.198Z,21.85
2018-05-09T08:28:33.075Z,21.84
2018-05-09T08:30:58.944Z,22.39
2018-05-09T08:33:24.822Z,21.53
2018-05-09T08:35:50.673Z,21.71
2018-05-09T08:38:16.515Z,22.46
2018-05-09T08:40:42.364Z,22.86
2018-05-09T08:43:08.280Z,22.52
2018-05-09T08:45:34.051Z,22.64
2018-05-09T08:47:59.920Z,22.71
2018-05-09T08:50:25.783Z,22.50
2018-05-09T08:52:51.618Z,22.54
2018-05-09T08:55:17.505Z,23.48
2018-05-09T08:57:43.368Z,23.59
2018-05-09T09:00:09.221Z,23.90
2018-05-09T09:02:35.079Z,24.02
2018-05-09T09:05:00.926Z,24.22
2018-05-09T09:07:26.800Z,23.76
2018-05-09T09:09:52.649Z,24.09
2018-05-09T09:12:18.496Z,24.17
2018-05-09T09:14:44.345Z,23.97
2018-05-09T09:17:10.200Z,24.13
2018-05-09T09:19:36.075Z,23.82
2018-05-09T09:22:01.957Z,23.67
2018-05-09T09:24:27.813Z,23.91
2018-05-09T09:26:53.693Z,23.26
2018-05-09T09:29:19.613Z,23.74
2018-05-09T09:31:45.409Z,23.87
2018-05-09T09:34:11.249Z,23.68
2018-05-09T09:36:37.105Z,24.00
2018-05-09T09:39:03.000Z,24.09
2018-05-09T09:41:28.899Z,24.27
2018-05-09T09:43:54.702Z,23.95
2018-05-09T09:46:20.523Z,23.99
2018-05-09T09:48:46.369Z,23.63
2018-05-09T09:51:12.196Z,24.23
2018-05-09T09:53:38.057Z,24.45
2018-05-09T09:56:03.959Z,24.51
2018-05-09T09:58:29.824Z,24.66
2018-05-09T10:00:55.645Z,24.14
2018-05-09T10:03:21.486Z,23.52
2018-05-09T10:05:47.352Z,23.00
2018-05-09T10:08:13.191Z,23.50
2018-05-09T10:10:39.049Z,24.13
2018-05-09T10:13:04.897Z,24.48
2018-05-09T10:15:30.747Z,23.93
2018-05-09T10:17:56.600Z,23.44
2018-05-09T10:20:22.472Z,23.71
2018-05-09T10:22:48.309Z,23.83
2018-05-09T10:25:14.121Z,23.96
2018-05-09T10:27:39.973Z,24.30
2018-05-09T10:30:05.860Z,24.24
2018-05-09T10:32:31.713Z,24.31
2018-05-09T10:34:57.553Z,24.55
2018-05-09T10:37:23.410Z,25.23
2018-05-09T10:39:49.254Z,25.47
2018-05-09T10:42:15.085Z,25.13
2018-05-09T10:44:40.906Z,24.72
2018-05-09T10:47:06.773Z,24.28
2018-05-09T10:49:32.647Z,24.03
2018-05-09T10:51:58.498Z,24.50
2018-05-09T10:54:24.364Z,23.89
2018-05-09T10:56:50.232Z,23.80
2018-05-09T10:59:16.118Z,23.60
2018-05-09T11:01:41.968Z,23.62
2018-05-09T11:04:07.845Z,24.12
2018-05-09T11:06:33.745Z,24.71
2018-05-09T11:08:59.581Z,25.04
2018-05-09T11:11:25.470Z,25.15
2018-05-09T11:13:51.281Z,25.53
2018-05-09T11:16:17.165Z,25.27
2018-05-09T11:18:43.000Z,25.83
2018-05-09T11:21:08.868Z,25.91
2018-05-09T11:23:34.701Z,26.36
2018-05-09T11:26:00.564Z,25.67
2018-05-09T11:28:26.449Z,25.54
2018-05-09T11:30:52.306Z,26.00
2018-05-09T11:33:18.187Z,25.89
2018-05-09T11:35:44.060Z,26.34
2018-05-09T11:38:09.891Z,26.06
2018-05-09T11:40:35.756Z,25.71
2018-05-09T11:43:01.611Z,25.21
2018-05-09T11:45:27.500Z,25.13
2018-05-09T11:47:53.324Z,25.37
2018-05-09T11:50:19.175Z,26.00
2018-05-09T11:52:45.016Z,25.85
2018-05-09T11:55:10.904Z,25.97
2018-05-09T11:57:36.726Z,26.78
2018-05-09T12:00:02.650Z,26.59
2018-05-09T12:02:28.564Z,26.21
2018-05-09T12:04:54.355Z,25.45
2018-05-09T12:07:20.228Z,25.84
2018-05-09T12:09:46.058Z,26.07
2018-05-09T12:12:11.921Z,26.98
2018-05-09T12:14:37.760Z,26.23
2018-05-09T12:17:03.612Z,25.99
2018-05-09T12:19:29.500Z,25.92
2018-05-09T12:21:55.356Z,25.43
2018-05-09T12:24:21.213Z,24.91
2018-05-09T12:26:47.053Z,24.65
2018-05-09T12:29:12.921Z,25.27
2018-05-09T12:31:38.775Z,26.51
2018-05-09T12:34:04.628Z,27.75
2018-05-09T12:36:30.535Z,28.32
2018-05-09T12:38:56.367Z,28.16
2018-05-09T12:41:22.221Z,27.66
2018-05-09T12:43:48.066Z,26.87
2018-05-09T12:46:13.883Z,27.26
2018-05-09T12:48:39.855Z,27.42
2018-05-09T12:51:05.600Z,28.27
2018-05-09T12:53:31.453Z,27.83
2018-05-09T12:55:57.300Z,27.56
2018-05-09T12:58:23.141Z,27.14
2018-05-09T13:00:48.978Z,28.23
2018-05-09T13:03:14.873Z,27.90
2018-05-09T13:05:40.755Z,26.59
2018-05-09T13:08:06.635Z,26.06
2018-05-09T13:10:32.502Z,26.78
2018-05-09T13:12:58.328Z,27.20
2018-05-09T13:15:24.185Z,27.14
2018-05-09T13:17:50.054Z,27.26
2018-05-09T13:20:15.865Z,27.90
2018-05-09T13:22:41.710Z,26.94
2018-05-09T13:25:07.557Z,26.44
2018-05-09T13:27:33.402Z,26.79
2018-05-09T13:29:59.265Z,26.59
2018-05-09T13:32:25.141Z,26.37
2018-05-09T13:34:50.967Z,27.05
2018-05-09T13:37:16.797Z,26.48
2018-05-09T13:39:42.640Z,25.85
2018-05-09T13:42:08.474Z,26.42
2018-05-09T13:44:34.334Z,26.86
2018-05-09T13:47:00.196Z,28.35
2018-05-09T13:49:26.183Z,28.74
2018-05-09T13:51:52.019Z,28.84
2018-05-09T13:54:17.900Z,28.78
2018-05-09T13:56:43.738Z,28.94
2018-05-09T13:59:09.550Z,27.25
2018-05-09T14:01:35.428Z,26.61
2018-05-09T14:04:01.288Z,26.18
2018-05-09T14:06:27.172Z,25.28
2018-05-09T14:08:53.005Z,25.14
2018-05-09T14:11:18.861Z,24.97
2018-05-09T14:13:44.689Z,24.83
2018-05-09T14:16:10.527Z,25.76
2018-05-09T14:18:36.385Z,25.69
2018-05-09T14:21:02.245Z,26.12
2018-05-09T14:23:28.146Z,27.29
2018-05-09T14:25:53.989Z,27.17
2018-05-09T14:28:19.845Z,26.92
2018-05-09T14:30:45.678Z,27.10
2018-05-09T14:33:11.537Z,27.88
2018-05-09T14:35:37.377Z,28.63
2018-05-09T14:38:03.296Z,28.39
2018-05-09T14:40:29.165Z,27.85
2018-05-09T14:42:55.040Z,28.39
2018-05-09T14:45:20.974Z,27.35
2018-05-09T14:47:46.842Z,26.35
2018-05-09T14:50:12.725Z,26.27
2018-05-09T14:52:38.631Z,25.86
2018-05-09T14:55:04.536Z,25.77
2018-05-09T14:57:30.458Z,26.04
2018-05-09T14:59:56.358Z,27.39
2018-05-09T15:02:22.284Z,27.21
2018-05-09T15:04:48.139Z,27.90
2018-05-09T15:07:14.030Z,28.18
2018-05-09T15:09:39.892Z,28.17
2018-05-09T15:12:05.749Z,26.21
2018-05-09T15:14:31.628Z,26.35
2018-05-09T15:16:57.514Z,25.69
2018-05-09T15:19:23.364Z,25.52
2018-05-09T15:21:49.659Z,25.14
2018-05-09T15:24:15.535Z,24.84
2018-05-09T15:26:41.430Z,24.68
2018-05-09T15:29:07.296Z,24.60
2018-05-09T15:31:33.133Z,25.01
2018-05-09T15:33:59.117Z,24.31
2018-05-09T15:36:24.982Z,23.77
2018-05-09T15:38:50.872Z,23.13
2018-05-09T15:41:16.774Z,22.77
2018-05-09T15:43:42.728Z,22.47
2018-05-09T15:46:08.620Z,22.54
2018-05-09T15:48:34.481Z,22.02
2018-05-09T15:51:00.356Z,22.03
2018-05-09T15:53:26.202Z,21.71
2018-05-09T15:55:52.083Z,21.45
2018-05-09T15:58:17.969Z,21.36
2018-05-09T16:00:43.948Z,20.98
2018-05-09T16:03:09.753Z,21.09
2018-05-09T16:05:35.590Z,20.87
2018-05-09T16:08:01.432Z,21.21
2018-05-09T16:10:27.316Z,21.42
2018-05-09T16:12:53.173Z,21.37
2018-05-09T16:15:19.048Z,21.35
2018-05-09T16:17:44.930Z,21.28
2018-05-09T16:20:10.847Z,21.47
2018-05-09T16:22:36.709Z,21.50
2018-05-09T16:25:02.607Z,21.47
2018-05-09T16:27:28.461Z,21.67
2018-05-09T16:29:54.329Z,21.74
2018-05-09T16:32:20.190Z,21.88
2018-05-09T16:34:46.029Z,22.09
2018-05-09T16:37:11.862Z,22.07
2018-05-09T16:39:37.740Z,22.24
2018-05-09T16:42:03.608Z,21.76
2018-05-09T16:44:29.523Z,21.44
2018-05-09T16:46:55.438Z,21.88
2018-05-09T16:49:21.301Z,21.61
2018-05-09T16:51:47.165Z,22.03
2018-05-09T16:54:13.009Z,21.89
2018-05-09T16:56:38.902Z,22.18
2018-05-09T16:59:04.786Z,21.78
2018-05-09T17:01:30.784Z,21.74
2018-05-09T17:03:56.611Z,22.06
2018-05-09T17:06:22.481Z,21.81
2018-05-09T17:08:48.358Z,22.12
2018-05-09T17:11:14.220Z,22.05
2018-05-09T17:13:40.113Z,22.01
2018-05-09T17:16:05.990Z,22.28
2018-05-09T17:18:31.852Z,21.93
2018-05-09T17:20:57.715Z,21.82
2018-05-09T17:23:23.579Z,21.87
2018-05-09T17:25:49.461Z,21.96
2018-05-09T17:28:15.353Z,22.16
2018-05-09T17:30:41.330Z,22.03
2018-05-09T17:33:07.115Z,21.76
2018-05-09T17:35:32.993Z,21.30
2018-05-09T17:37:58.861Z,21.05
2018-05-09T17:40:24.773Z,20.90
2018-05-09T17:42:50.606Z,20.93
2018-05-09T17:45:16.513Z,20.83
2018-05-09T17:47:42.363Z,20.96
2018-05-09T17:50:08.250Z,20.96
2018-05-09T17:52:34.155Z,20.93
2018-05-09T17:55:00.039Z,20.54
2018-05-09T17:57:25.889Z,20.66
2018-05-09T17:59:51.753Z,20.62
2018-05-09T18:02:17.650Z,20.52
2018-05-09T18:04:43.490Z,20.43
2018-05-09T18:07:09.455Z,20.08
2018-05-09T18:09:35.332Z,20.27
2018-05-09T18:12:01.223Z,20.54
2018-05-09T18:14:27.112Z,20.51
2018-05-09T18:16:53.017Z,20.47
2018-05-09T18:19:18.939Z,20.34
2018-05-09T18:21:44.852Z,20.32
2018-05-09T18:24:10.719Z,20.14
2018-05-09T18:26:36.559Z,19.90
2018-05-09T18:29:02.520Z,19.95
2018-05-09T18:31:28.386Z,20.10
2018-05-09T18:34:01.141Z,20.23
2018-05-09T18:36:33.949Z,20.18
2018-05-09T18:38:59.808Z,20.01
2018-05-09T18:41:25.682Z,20.16
2018-05-09T18:43:51.589Z,20.33
2018-05-09T18:46:17.520Z,20.09
2018-05-09T18:48:43.347Z,19.93
2018-05-09T18:51:09.251Z,20.08
2018-05-09T18:53:35.152Z,20.10
2018-05-09T18:56:01.065Z,20.17
2018-05-09T18:58:26.962Z,20.10
2018-05-09T19:00:52.873Z,19.93
2018-05-09T19:03:18.746Z,19.98
2018-05-09T19:05:44.681Z,19.80
2018-05-09T19:08:10.554Z,19.51
2018-05-09T19:10:36.450Z,19.46
2018-05-09T19:13:02.343Z,19.30
2018-05-09T19:15:28.247Z,19.12
2018-05-09T19:17:54.104Z,19.07
2018-05-09T19:20:19.962Z,19.19
2018-05-09T19:22:45.861Z,19.33
2018-05-09T19:25:11.776Z,19.52
2018-05-09T19:27:38.112Z,19.58
2018-05-09T19:30:04.177Z,19.35
2018-05-09T19:32:30.120Z,19.55
2018-05-09T19:34:55.971Z,19.49
2018-05-09T19:37:21.865Z,19.32
2018-05-09T19:39:47.737Z,19.15
2018-05-09T19:42:13.718Z,19.02
2018-05-09T19:44:39.620Z,18.98
2018-05-09T19:47:05.486Z,19.05
2018-05-09T19:49:31.358Z,18.98
2018-05-09T19:51:57.257Z,19.14
2018-05-09T19:54:23.154Z,18.97
2018-05-09T19:56:49.009Z,18.81
2018-05-09T19:59:14.863Z,18.67
2018-05-09T20:01:40.709Z,18.80
2018-05-09T20:04:06.554Z,18.99
2018-05-09T20:06:32.460Z,18.77
2018-05-09T20:08:58.358Z,18.41
2018-05-09T20:11:24.264Z,18.25
2018-05-09T20:13:50.135Z,18.37
2018-05-09T20:16:16.086Z,18.29
2018-05-09T20:18:41.973Z,17.84
2018-05-09T20:21:07.945Z,17.81
2018-05-09T20:23:33.857Z,17.66
2018-05-09T20:25:59.714Z,17.63
2018-05-09T20:28:25.588Z,17.79
2018-05-09T20:30:57.573Z,17.93
2018-05-09T20:33:23.431Z,17.70
2018-05-09T20:35:49.300Z,17.08
2018-05-09T20:38:15.191Z,16.92
2018-05-09T20:40:41.102Z,16.63
2018-05-09T20:43:06.934Z,16.47
2018-05-09T20:45:32.784Z,16.75
2018-05-09T20:47:58.740Z,16.91
2018-05-09T20:50:24.621Z,16.62
2018-05-09T20:52:50.464Z,16.72
2018-05-09T20:55:26.625Z,16.29
2018-05-09T20:57:52.475Z,16.33
2018-05-09T21:00:18.329Z,16.65
2018-05-09T21:02:44.228Z,16.71
2018-05-09T21:05:10.103Z,16.80
2018-05-09T21:07:48.157Z,16.92
2018-05-09T21:10:14.047Z,16.77
2018-05-09T21:12:39.908Z,16.79
2018-05-09T21:15:05.793Z,16.78
2018-05-09T21:17:31.628Z,16.50
2018-05-09T21:19:57.482Z,16.17
2018-05-09T21:22:30.260Z,16.03
2018-05-09T21:24:56.144Z,15.76
2018-05-09T21:27:22.038Z,15.50
2018-05-09T21:29:48.000Z,15.66
2018-05-09T21:32:13.865Z,15.93
2018-05-09T21:34:39.743Z,15.80
2018-05-09T21:37:05.614Z,15.74
2018-05-09T21:39:31.490Z,15.60
2018-05-09T21:41:57.344Z,15.72
2018-05-09T21:44:23.220Z,15.70
2018-05-09T21:46:49.108Z,15.53
2018-05-09T21:49:14.960Z,15.44
2018-05-09T21:51:40.840Z,15.19
2018-05-09T21:54:06.717Z,15.43
2018-05-09T21:56:32.581Z,15.42
2018-05-09T21:58:58.449Z,15.50
2018-05-09T22:01:24.299Z,15.42
2018-05-09T22:03:50.172Z,15.46
2018-05-09T22:06:16.084Z,15.52
2018-05-09T22:08:41.925Z,15.57
2018-05-09T22:11:07.767Z,15.64
2018-05-09T22:13:33.658Z,15.50
2018-05-09T22:15:59.529Z,15.13
2018-05-09T22:18:25.411Z,14.92
2018-05-09T22:20:51.252Z,15.02
2018-05-09T22:23:17.107Z,14.77
2018-05-09T22:25:42.952Z,14.75
2018-05-09T22:28:08.933Z,14.83
2018-05-09T22:30:34.777Z,14.70
2018-05-09T22:33:00.653Z,14.92
2018-05-09T22:35:26.464Z,14.83
2018-05-09T22:37:52.331Z,14.93
2018-05-09T22:40:18.225Z,15.03
2018-05-09T22:42:44.082Z,15.09
2018-05-09T22:45:09.928Z,15.09
2018-05-09T22:47:35.845Z,15.04
2018-05-09T22:50:01.733Z,14.92
2018-05-09T22:52:27.594Z,15.00
2018-05-09T22:54:53.463Z,15.06
2018-05-09T22:57:19.320Z,14.97
2018-05-09T22:59:45.173Z,14.86
2018-05-09T23:02:11.031Z,14.77
2018-05-09T23:04:36.890Z,14.90
2018-05-09T23:07:02.755Z,14.83
2018-05-09T23:09:28.663Z,14.89
2018-05-09T23:11:54.482Z,14.67
2018-05-09T23:14:20.330Z,14.71
2018-05-09T23:16:46.193Z,14.86
2018-05-09T23:19:12.065Z,14.88
2018-05-09T23:21:37.929Z,14.81
2018-05-09T23:24:03.792Z,14.38
2018-05-09T23:26:29.620Z,14.51
2018-05-09T23:28:55.434Z,14.25
2018-05-09T23:31:21.313Z,14.08
2018-05-09T23:33:47.196Z,14.34
2018-05-09T23:36:13.061Z,14.31
2018-05-09T23:38:38.926Z,14.44
2018-05-09T23:41:04.788Z,14.63
2018-05-09T23:43:30.629Z,14.68
2018-05-09T23:45:56.470Z,14.49
2018-05-09T23:48:22.343Z,14.50
2018-05-09T23:50:48.256Z,14.30
2018-05-09T23:53:14.139Z,14.07
2018-05-09T23:55:40.049Z,13.92
2018-05-09T23:58:05.855Z,14.01
